createdAt,value
2023-11-26T00:00:14.519Z,1.63
2023-11-26T00:02:42.079Z,1.40
2023-11-26T00:05:09.408Z,1.50
2023-11-26T00:07:36.434Z,1.65
2023-11-26T00:10:03.758Z,1.70
2023-11-26T00:12:30.842Z,2.05
2023-11-26T00:14:57.826Z,1.60
2023-11-26T00:17:25.743Z,1.80
2023-11-26T00:19:52.935Z,1.88
2023-11-26T00:22:19.868Z,2.00
2023-11-26T00:24:47.152Z,1.70
2023-11-26T00:27:14.119Z,1.73
2023-11-26T00:29:44.241Z,2.17
2023-11-26T00:32:11.766Z,1.90
2023-11-26T00:34:39.068Z,2.13
2023-11-26T00:37:06.069Z,1.90
2023-11-26T00:39:34.091Z,2.47
2023-11-26T00:42:01.192Z,2.13
2023-11-26T00:44:28.468Z,2.55
2023-11-26T00:46:55.689Z,2.42
2023-11-26T00:49:23.308Z,2.60
2023-11-26T00:51:50.285Z,2.60
2023-11-26T00:54:17.926Z,2.78
2023-11-26T00:56:44.876Z,2.70
2023-11-26T00:59:11.943Z,2.63
2023-11-26T01:01:38.954Z,2.72
2023-11-26T01:04:08.786Z,2.78
2023-11-26T01:06:36.884Z,2.80
2023-11-26T01:09:23.701Z,2.60
2023-11-26T01:11:53.538Z,2.90
2023-11-26T01:14:20.945Z,3.00
2023-11-26T01:16:50.720Z,2.75
2023-11-26T01:19:18.139Z,3.30
2023-11-26T01:21:45.983Z,3.40
2023-11-26T01:24:12.984Z,4.00
2023-11-26T01:26:41.192Z,3.30
2023-11-26T01:29:08.748Z,2.95
2023-11-26T01:31:35.927Z,2.90
2023-11-26T01:34:04.934Z,2.80
2023-11-26T01:37:03.498Z,3.28
2023-11-26T01:39:30.810Z,2.83
2023-11-26T01:41:58.622Z,3.60
2023-11-26T01:44:27.656Z,3.90
2023-11-26T01:46:56.362Z,3.83
2023-11-26T01:49:26.552Z,4.43
2023-11-26T01:51:54.004Z,3.45
2023-11-26T01:54:21.730Z,3.40
2023-11-26T01:56:49.106Z,3.65
2023-11-26T01:59:16.292Z,3.40
2023-11-26T02:01:46.379Z,3.47
2023-11-26T02:04:14.092Z,3.42
2023-11-26T02:06:41.049Z,3.70
2023-11-26T02:09:09.036Z,3.17
2023-11-26T02:11:35.876Z,3.20
2023-11-26T02:14:02.721Z,3.35
2023-11-26T02:16:29.767Z,3.58
2023-11-26T02:18:56.568Z,3.45
2023-11-26T02:21:23.349Z,3.75
2023-11-26T02:23:51.037Z,3.20
2023-11-26T02:26:18.154Z,3.40
2023-11-26T02:28:45.317Z,3.70
2023-11-26T02:31:12.080Z,4.15
2023-11-26T02:33:54.063Z,3.45
2023-11-26T02:36:23.406Z,3.67
2023-11-26T02:38:50.176Z,3.63
2023-11-26T02:41:16.918Z,3.50
2023-11-26T02:43:44.030Z,3.50
2023-11-26T02:46:11.164Z,3.97
2023-11-26T02:48:38.181Z,3.80
2023-11-26T02:51:04.960Z,4.10
2023-11-26T02:53:31.754Z,4.25
2023-11-26T02:55:58.679Z,4.40
2023-11-26T02:58:25.629Z,5.00
2023-11-26T03:00:52.847Z,5.68
2023-11-26T03:03:20.962Z,4.90
2023-11-26T03:05:51.846Z,4.78
2023-11-26T03:08:33.735Z,4.47
2023-11-26T03:11:19.336Z,5.30
2023-11-26T03:13:46.301Z,5.68
2023-11-26T03:16:13.790Z,5.28
2023-11-26T03:18:40.711Z,5.40
2023-11-26T03:21:08.580Z,5.35
2023-11-26T03:23:35.376Z,4.95
2023-11-26T03:26:02.228Z,4.47
2023-11-26T03:28:29.145Z,4.97
2023-11-26T03:30:58.172Z,4.50
2023-11-26T03:33:28.240Z,4.30
2023-11-26T03:35:55.484Z,4.25
2023-11-26T03:38:22.316Z,4.40
2023-11-26T03:40:49.339Z,4.18
2023-11-26T03:43:16.644Z,4.57
2023-11-26T03:45:43.794Z,4.80
2023-11-26T03:48:10.846Z,4.18
2023-11-26T03:50:37.721Z,3.92
2023-11-26T03:53:04.642Z,3.92
2023-11-26T03:55:31.892Z,3.95
2023-11-26T03:57:58.674Z,3.70
2023-11-26T04:00:25.595Z,3.80
2023-11-26T04:02:52.530Z,4.10
2023-11-26T04:05:19.609Z,4.00
2023-11-26T04:07:46.485Z,4.03
2023-11-26T04:10:19.595Z,4.30
2023-11-26T04:12:51.222Z,4.20
2023-11-26T04:15:24.457Z,4.68
2023-11-26T04:17:51.778Z,4.40
2023-11-26T04:20:18.645Z,4.35
2023-11-26T04:22:45.917Z,5.00
2023-11-26T04:25:13.403Z,4.93
2023-11-26T04:27:40.261Z,4.55
2023-11-26T04:30:09.177Z,4.63
2023-11-26T04:32:36.112Z,4.53
2023-11-26T04:35:03.104Z,4.25
2023-11-26T04:37:30.794Z,4.75
2023-11-26T04:39:59.303Z,5.05
2023-11-26T04:42:28.922Z,5.13
2023-11-26T04:44:56.274Z,5.20
2023-11-26T04:47:25.459Z,5.03
2023-11-26T04:49:57.780Z,4.32
2023-11-26T04:52:25.180Z,4.57
2023-11-26T04:54:55.264Z,4.43
2023-11-26T04:57:25.318Z,4.13
2023-11-26T04:59:56.184Z,4.40
2023-11-26T05:02:26.336Z,4.57
2023-11-26T05:04:54.160Z,4.88
2023-11-26T05:07:24.334Z,4.30
2023-11-26T05:09:54.046Z,5.03
2023-11-26T05:12:25.130Z,5.40
2023-11-26T05:14:55.628Z,5.72
2023-11-26T05:17:25.461Z,6.85
2023-11-26T05:19:52.904Z,7.45
2023-11-26T05:22:22.214Z,4.90
2023-11-26T05:24:49.514Z,4.30
2023-11-26T05:27:17.077Z,5.35
2023-11-26T05:29:44.811Z,5.68
2023-11-26T05:32:13.496Z,5.20
2023-11-26T05:34:41.207Z,5.22
2023-11-26T05:37:08.621Z,5.10
2023-11-26T05:39:36.701Z,5.15
2023-11-26T05:42:04.681Z,4.50
2023-11-26T05:44:32.770Z,4.85
2023-11-26T05:47:02.417Z,5.43
2023-11-26T05:49:30.344Z,5.00
2023-11-26T05:51:59.500Z,5.47
2023-11-26T05:54:28.223Z,5.03
2023-11-26T05:56:55.593Z,5.47
2023-11-26T05:59:22.870Z,5.07
2023-11-26T06:01:50.445Z,5.50
2023-11-26T06:04:18.410Z,5.28
2023-11-26T06:06:48.207Z,5.82
2023-11-26T06:09:18.365Z,7.53
2023-11-26T06:11:46.972Z,5.13
2023-11-26T06:14:14.784Z,5.75
2023-11-26T06:16:45.111Z,5.78
2023-11-26T06:19:13.138Z,5.15
2023-11-26T06:21:40.184Z,5.93
2023-11-26T06:24:09.463Z,5.95
2023-11-26T06:26:42.033Z,5.72
2023-11-26T06:29:12.759Z,5.40
2023-11-26T06:31:41.105Z,6.07
2023-11-26T06:34:10.964Z,5.40
2023-11-26T06:36:38.955Z,5.07
2023-11-26T06:39:12.271Z,5.43
2023-11-26T06:41:43.303Z,5.20
2023-11-26T06:44:12.333Z,5.28
2023-11-26T06:46:40.542Z,5.03
2023-11-26T06:49:08.970Z,5.72
2023-11-26T06:51:36.626Z,5.68
2023-11-26T06:54:07.358Z,5.78
2023-11-26T06:56:34.281Z,6.82
2023-11-26T06:59:03.913Z,6.47
2023-11-26T07:01:33.782Z,6.80
2023-11-26T07:04:04.829Z,6.35
2023-11-26T07:06:37.277Z,6.20
2023-11-26T07:09:10.664Z,5.90
2023-11-26T07:11:37.904Z,5.90
2023-11-26T07:14:05.644Z,5.55
2023-11-26T07:16:34.818Z,6.43
2023-11-26T07:19:02.494Z,7.20
2023-11-26T07:21:31.145Z,7.97
2023-11-26T07:23:58.349Z,7.40
2023-11-26T07:26:27.759Z,7.95
2023-11-26T07:28:55.542Z,7.78
2023-11-26T07:31:24.931Z,7.20
2023-11-26T07:33:52.796Z,7.47
2023-11-26T07:36:25.109Z,7.40
2023-11-26T07:38:55.286Z,7.40
2023-11-26T07:41:23.738Z,10.32
2023-11-26T07:43:54.933Z,15.52
2023-11-26T07:46:23.449Z,10.13
2023-11-26T07:48:52.118Z,7.78
2023-11-26T07:51:19.520Z,9.25
2023-11-26T07:53:47.098Z,11.50
2023-11-26T07:56:14.408Z,9.50
2023-11-26T07:58:46.989Z,9.93
2023-11-26T08:01:14.427Z,10.48
2023-11-26T08:03:43.341Z,10.68
2023-11-26T08:06:14.898Z,9.38
2023-11-26T08:08:46.105Z,9.63
2023-11-26T08:11:15.430Z,9.68
2023-11-26T08:13:46.751Z,8.88
2023-11-26T08:16:17.310Z,8.70
2023-11-26T08:18:45.057Z,7.93
2023-11-26T08:21:13.677Z,7.90
2023-11-26T08:23:52.279Z,7.13
2023-11-26T08:26:22.894Z,7.45
2023-11-26T08:28:50.087Z,5.22
2023-11-26T08:31:18.667Z,5.38
2023-11-26T08:33:50.303Z,5.90
2023-11-26T08:36:20.940Z,5.22
2023-11-26T08:38:50.041Z,6.40
2023-11-26T08:41:22.862Z,7.03
2023-11-26T08:43:52.858Z,6.73
2023-11-26T08:46:23.647Z,6.40
2023-11-26T08:48:54.629Z,6.18
2023-11-26T08:51:23.559Z,6.53
2023-11-26T08:53:50.958Z,7.18
2023-11-26T08:56:20.081Z,6.80
2023-11-26T08:58:48.091Z,6.47
2023-11-26T09:01:15.631Z,5.55
2023-11-26T09:03:42.986Z,5.63
2023-11-26T09:06:10.808Z,6.32
2023-11-26T09:08:43.101Z,6.13
2023-11-26T09:11:16.048Z,6.85
2023-11-26T09:13:46.944Z,7.60
2023-11-26T09:16:14.437Z,7.38
2023-11-26T09:18:48.209Z,8.65
2023-11-26T09:21:19.877Z,7.47
2023-11-26T09:23:57.744Z,8.48
2023-11-26T09:26:28.655Z,7.80
2023-11-26T09:28:58.676Z,7.60
2023-11-26T09:31:25.929Z,8.13
2023-11-26T09:33:53.360Z,7.60
2023-11-26T09:36:20.989Z,7.32
2023-11-26T09:38:51.846Z,7.28
2023-11-26T09:41:20.935Z,7.07
2023-11-26T09:43:48.787Z,8.80
2023-11-26T09:46:17.612Z,6.25
2023-11-26T09:48:48.346Z,6.25
2023-11-26T09:51:17.911Z,6.70
2023-11-26T09:53:48.477Z,8.00
2023-11-26T09:56:17.593Z,7.38
2023-11-26T09:58:45.021Z,6.95
2023-11-26T10:01:13.284Z,6.72
2023-11-26T10:04:06.364Z,7.40
2023-11-26T10:06:35.456Z,7.35
2023-11-26T10:09:19.256Z,7.75
2023-11-26T10:11:50.483Z,7.30
2023-11-26T10:14:19.711Z,7.78
2023-11-26T10:16:48.313Z,9.10
2023-11-26T10:19:27.387Z,9.32
2023-11-26T10:22:01.921Z,11.05
2023-11-26T10:24:30.631Z,10.40
2023-11-26T10:26:59.755Z,9.55
2023-11-26T10:29:31.809Z,8.82
2023-11-26T10:32:08.738Z,9.20
2023-11-26T10:34:37.457Z,9.35
2023-11-26T10:37:20.995Z,9.00
2023-11-26T10:39:52.902Z,10.05
2023-11-26T10:42:23.214Z,10.40
2023-11-26T10:44:54.425Z,9.45
2023-11-26T10:47:22.954Z,10.40
2023-11-26T10:49:54.539Z,10.27
2023-11-26T10:52:41.533Z,11.20
2023-11-26T10:55:11.838Z,9.68
2023-11-26T10:57:41.107Z,9.05
2023-11-26T11:00:14.749Z,9.70
2023-11-26T11:02:46.263Z,9.30
2023-11-26T11:05:17.187Z,9.27
2023-11-26T11:07:44.920Z,9.93
2023-11-26T11:13:25.233Z,9.23
2023-11-26T11:15:52.690Z,9.07
2023-11-26T11:18:49.386Z,10.07
2023-11-26T11:21:18.528Z,9.35
2023-11-26T11:23:47.914Z,10.07
2023-11-26T11:26:16.861Z,10.50
2023-11-26T11:28:49.453Z,10.88
2023-11-26T11:31:43.502Z,10.85
2023-11-26T11:34:20.445Z,11.82
2023-11-26T11:36:54.367Z,12.07
2023-11-26T11:42:31.658Z,12.00
2023-11-26T11:45:27.760Z,13.40
2023-11-26T11:47:55.698Z,16.58
2023-11-26T11:50:31.228Z,14.73
2023-11-26T11:53:05.263Z,12.30
2023-11-26T11:55:35.274Z,10.38
2023-11-26T11:58:12.412Z,9.65
2023-11-26T12:00:40.261Z,10.05
2023-11-26T12:03:07.578Z,9.63
2023-11-26T12:05:34.613Z,7.75
2023-11-26T12:08:02.113Z,8.60
2023-11-26T12:10:32.444Z,9.20
2023-11-26T12:13:08.111Z,9.40
2023-11-26T12:15:36.547Z,8.55
2023-11-26T12:18:04.049Z,8.68
2023-11-26T12:20:34.815Z,9.32
2023-11-26T12:23:02.005Z,8.45
2023-11-26T12:25:29.321Z,8.70
2023-11-26T12:28:07.383Z,9.48
2023-11-26T12:30:37.685Z,9.55
2023-11-26T12:33:05.635Z,9.32
2023-11-26T12:35:38.324Z,8.98
2023-11-26T12:38:08.125Z,10.13
2023-11-26T12:40:37.553Z,10.07
2023-11-26T12:43:05.272Z,10.50
2023-11-26T12:45:32.898Z,9.95
2023-11-26T12:47:59.972Z,9.48
2023-11-26T12:50:44.908Z,9.55
2023-11-26T12:53:16.542Z,9.07
2023-11-26T12:55:47.570Z,9.02
2023-11-26T12:58:20.010Z,8.75
2023-11-26T13:00:47.879Z,9.05
2023-11-26T13:03:18.377Z,9.75
2023-11-26T13:05:48.297Z,10.63
2023-11-26T13:08:23.416Z,9.65
2023-11-26T13:11:00.121Z,10.68
2023-11-26T13:13:34.401Z,11.98
2023-11-26T13:16:06.744Z,10.90
2023-11-26T13:18:37.194Z,11.10
2023-11-26T13:21:08.357Z,10.60
2023-11-26T13:23:42.762Z,10.35
2023-11-26T13:26:11.742Z,10.52
2023-11-26T13:28:41.866Z,10.45
2023-11-26T13:31:15.373Z,10.52
2023-11-26T13:33:46.022Z,10.63
2023-11-26T13:36:15.381Z,10.23
2023-11-26T13:38:42.807Z,10.90
2023-11-26T13:41:10.169Z,10.07
2023-11-26T13:43:39.082Z,10.85
2023-11-26T13:46:09.157Z,10.35
2023-11-26T13:48:38.566Z,11.38
2023-11-26T13:51:08.925Z,12.05
2023-11-26T13:53:36.181Z,11.27
2023-11-26T13:56:03.628Z,11.38
2023-11-26T13:58:34.274Z,11.25
2023-11-26T14:01:01.408Z,12.38
2023-11-26T14:03:31.430Z,12.25
2023-11-26T14:06:00.669Z,12.70
2023-11-26T14:08:27.712Z,12.43
2023-11-26T14:10:55.531Z,12.10
2023-11-26T14:13:22.804Z,11.70
2023-11-26T14:15:52.842Z,11.70
2023-11-26T14:18:26.405Z,13.07
2023-11-26T14:20:54.907Z,13.43
2023-11-26T14:23:28.198Z,14.13
2023-11-26T14:25:55.526Z,16.67
2023-11-26T14:28:22.932Z,16.15
2023-11-26T14:30:51.232Z,15.20
2023-11-26T14:33:19.112Z,14.70
2023-11-26T14:35:49.211Z,12.70
2023-11-26T14:38:21.109Z,11.10
2023-11-26T14:40:48.268Z,12.05
2023-11-26T14:43:15.494Z,11.43
2023-11-26T14:45:48.659Z,12.25
2023-11-26T14:48:16.201Z,13.07
2023-11-26T14:50:45.679Z,11.90
2023-11-26T14:53:14.595Z,12.05
2023-11-26T14:55:41.822Z,12.23
2023-11-26T14:58:09.471Z,12.38
2023-11-26T15:00:41.193Z,11.63
2023-11-26T15:03:09.600Z,12.13
2023-11-26T15:05:37.240Z,11.13
2023-11-26T15:08:08.977Z,11.13
2023-11-26T15:10:35.936Z,10.20
2023-11-26T15:13:03.191Z,9.93
2023-11-26T15:15:30.061Z,10.80
2023-11-26T15:17:57.335Z,11.02
2023-11-26T15:20:27.487Z,19.48
2023-11-26T15:22:59.963Z,23.08
2023-11-26T15:25:27.914Z,24.30
2023-11-26T15:27:55.498Z,19.90
2023-11-26T15:30:22.510Z,21.65
2023-11-26T15:32:50.040Z,21.55
2023-11-26T15:35:18.333Z,59.55
2023-11-26T15:37:45.904Z,36.35
2023-11-26T15:40:17.484Z,27.73
2023-11-26T15:42:45.252Z,26.83
2023-11-26T15:45:14.842Z,26.63
2023-11-26T15:47:42.537Z,20.92
2023-11-26T15:50:10.404Z,17.95
2023-11-26T15:52:37.751Z,15.38
2023-11-26T15:55:07.227Z,13.77
2023-11-26T15:57:34.392Z,12.13
2023-11-26T16:00:01.498Z,13.38
2023-11-26T16:02:28.554Z,14.55
2023-11-26T16:04:59.834Z,13.75
2023-11-26T16:07:27.843Z,14.35
2023-11-26T16:09:55.311Z,14.27
2023-11-26T16:12:22.508Z,16.38
2023-11-26T16:14:49.708Z,18.02
2023-11-26T16:17:26.850Z,17.48
2023-11-26T16:19:59.438Z,16.20
2023-11-26T16:22:26.671Z,18.35
2023-11-26T16:24:53.783Z,16.98
2023-11-26T16:27:20.598Z,15.20
2023-11-26T16:29:47.573Z,13.50
2023-11-26T16:32:14.482Z,12.57
2023-11-26T16:34:41.583Z,12.30
2023-11-26T16:37:10.226Z,15.27
2023-11-26T16:39:37.455Z,14.18
2023-11-26T16:42:07.839Z,13.45
2023-11-26T16:44:42.452Z,10.68
2023-11-26T16:47:09.539Z,12.32
2023-11-26T16:49:36.443Z,12.05
2023-11-26T16:52:04.365Z,12.10
2023-11-26T16:54:32.133Z,11.77
2023-11-26T16:56:59.088Z,12.52
2023-11-26T16:59:26.954Z,12.98
2023-11-26T17:01:54.550Z,12.65
2023-11-26T17:04:22.678Z,12.63
2023-11-26T17:06:49.686Z,12.75
2023-11-26T17:09:17.635Z,13.23
2023-11-26T17:11:44.897Z,14.55
2023-11-26T17:14:11.811Z,14.20
2023-11-26T17:16:40.052Z,13.88
2023-11-26T17:19:07.588Z,13.32
2023-11-26T17:21:39.152Z,11.88
2023-11-26T17:24:06.506Z,11.68
2023-11-26T17:26:33.626Z,11.32
2023-11-26T17:29:00.837Z,13.13
2023-11-26T17:31:29.386Z,14.45
2023-11-26T17:33:57.122Z,13.15
2023-11-26T17:36:24.536Z,12.18
2023-11-26T17:38:51.490Z,11.75
2023-11-26T17:41:18.668Z,11.13
2023-11-26T17:43:45.666Z,11.00
2023-11-26T17:46:12.911Z,10.43
2023-11-26T17:48:40.409Z,10.18
2023-11-26T17:51:07.870Z,10.93
2023-11-26T17:53:36.034Z,11.13
2023-11-26T17:56:06.112Z,11.43
2023-11-26T17:58:33.346Z,12.85
2023-11-26T18:01:00.533Z,10.50
2023-11-26T18:03:27.657Z,10.18
2023-11-26T18:05:54.757Z,11.10
2023-11-26T18:08:22.822Z,11.77
2023-11-26T18:10:50.422Z,11.25
2023-11-26T18:13:17.447Z,10.07
2023-11-26T18:15:44.987Z,10.63
2023-11-26T18:18:12.235Z,10.13
2023-11-26T18:20:39.358Z,10.57
2023-11-26T18:23:06.976Z,11.57
2023-11-26T18:25:35.404Z,11.35
2023-11-26T18:28:02.457Z,11.65
2023-11-26T18:30:29.744Z,11.27
2023-11-26T18:32:57.003Z,12.15
2023-11-26T18:35:26.543Z,13.43
2023-11-26T18:37:55.865Z,15.48
2023-11-26T18:40:22.802Z,15.77
2023-11-26T18:42:51.051Z,14.45
2023-11-26T18:45:19.194Z,15.55
2023-11-26T18:47:47.089Z,16.00
2023-11-26T18:50:14.245Z,16.63
2023-11-26T18:52:41.231Z,17.50
2023-11-26T18:55:08.668Z,16.35
2023-11-26T18:57:35.739Z,18.33
2023-11-26T19:00:03.948Z,15.68
2023-11-26T19:02:31.068Z,14.30
2023-11-26T19:04:58.218Z,19.90
2023-11-26T19:07:25.442Z,22.02
2023-11-26T19:09:52.413Z,19.38
2023-11-26T19:12:19.233Z,18.38
2023-11-26T19:14:47.724Z,17.92
2023-11-26T19:17:14.796Z,17.08
2023-11-26T19:19:42.464Z,17.52
2023-11-26T19:22:09.818Z,16.70
2023-11-26T19:24:37.778Z,14.35
2023-11-26T19:27:05.065Z,12.50
2023-11-26T19:29:31.972Z,12.77
2023-11-26T19:31:59.456Z,15.05
2023-11-26T19:34:26.417Z,15.05
2023-11-26T19:36:53.311Z,12.82
2023-11-26T19:39:20.892Z,14.10
2023-11-26T19:41:47.874Z,12.93
2023-11-26T19:44:15.617Z,13.48
2023-11-26T19:46:43.032Z,14.82
2023-11-26T19:49:10.445Z,14.15
2023-11-26T19:51:37.900Z,14.15
2023-11-26T19:54:05.725Z,14.18
2023-11-26T19:56:39.020Z,14.63
2023-11-26T20:01:35.036Z,15.35
2023-11-26T20:04:02.252Z,14.10
2023-11-26T20:06:29.344Z,15.43
2023-11-26T20:08:56.692Z,16.63
2023-11-26T20:11:24.619Z,14.70
2023-11-26T20:13:52.512Z,15.35
2023-11-26T20:16:25.934Z,14.07
2023-11-26T20:18:55.416Z,13.05
2023-11-26T20:21:23.129Z,12.15
2023-11-26T20:23:51.608Z,14.00
2023-11-26T20:26:21.795Z,13.23
2023-11-26T20:28:48.961Z,11.57
2023-11-26T20:31:16.055Z,10.48
2023-11-26T20:33:43.253Z,10.38
2023-11-26T20:36:19.260Z,9.77
2023-11-26T20:38:46.588Z,9.00
2023-11-26T20:41:13.942Z,7.95
2023-11-26T20:43:41.167Z,8.85
2023-11-26T20:46:08.240Z,8.35
2023-11-26T20:48:35.602Z,8.07
2023-11-26T20:51:02.706Z,9.35
2023-11-26T20:53:29.759Z,12.05
2023-11-26T20:55:56.637Z,14.68
2023-11-26T20:58:26.532Z,15.23
2023-11-26T21:00:55.264Z,11.82
2023-11-26T21:03:22.882Z,10.52
2023-11-26T21:05:52.406Z,9.93
2023-11-26T21:08:19.342Z,8.60
2023-11-26T21:10:46.293Z,7.50
2023-11-26T21:13:13.795Z,5.32
2023-11-26T21:15:40.720Z,6.03
2023-11-26T21:18:08.129Z,6.60
2023-11-26T21:20:35.031Z,8.23
2023-11-26T21:23:01.930Z,7.28
2023-11-26T21:25:28.926Z,6.90
2023-11-26T21:27:56.674Z,7.40
2023-11-26T21:30:23.900Z,6.80
2023-11-26T21:32:51.117Z,6.78
2023-11-26T21:35:18.692Z,5.70
2023-11-26T21:37:45.562Z,5.60
2023-11-26T21:40:13.825Z,7.65
2023-11-26T21:42:41.078Z,7.10
2023-11-26T21:45:08.574Z,8.75
2023-11-26T21:47:36.312Z,8.52
2023-11-26T21:50:03.603Z,6.45
2023-11-26T21:52:30.808Z,5.05
2023-11-26T21:54:58.392Z,4.78
2023-11-26T21:57:25.914Z,4.38
2023-11-26T21:59:52.842Z,4.03
2023-11-26T22:02:19.810Z,4.55
2023-11-26T22:04:47.901Z,4.28
2023-11-26T22:07:15.254Z,4.43
2023-11-26T22:09:43.188Z,4.40
2023-11-26T22:12:10.121Z,4.35
2023-11-26T22:14:37.865Z,3.78
2023-11-26T22:17:05.493Z,4.13
2023-11-26T22:19:32.578Z,4.20
2023-11-26T22:22:01.864Z,4.20
2023-11-26T22:24:29.204Z,3.92
2023-11-26T22:26:56.087Z,3.75
2023-11-26T22:29:23.711Z,3.90
2023-11-26T22:31:51.133Z,3.92
2023-11-26T22:34:20.520Z,3.58
2023-11-26T22:36:48.235Z,3.50
2023-11-26T22:39:17.959Z,3.70
2023-11-26T22:41:44.786Z,3.13
2023-11-26T22:44:11.850Z,5.40
2023-11-26T22:46:40.309Z,4.65
2023-11-26T22:49:07.494Z,4.28
2023-11-26T22:51:35.042Z,3.97
2023-11-26T22:54:02.640Z,3.28
2023-11-26T22:56:29.656Z,3.60
2023-11-26T22:58:56.731Z,4.10
2023-11-26T23:01:24.376Z,3.17
2023-11-26T23:03:53.052Z,3.40
2023-11-26T23:06:20.130Z,3.03
2023-11-26T23:08:47.337Z,5.68
2023-11-26T23:11:17.768Z,5.43
2023-11-26T23:13:45.231Z,5.32
2023-11-26T23:16:12.834Z,5.00
2023-11-26T23:18:40.484Z,3.40
2023-11-26T23:21:09.643Z,3.40
2023-11-26T23:23:42.643Z,2.72
2023-11-26T23:26:17.378Z,2.88
2023-11-26T23:28:44.368Z,2.70
2023-11-26T23:31:18.599Z,2.75
2023-11-26T23:33:47.632Z,2.90
2023-11-26T23:36:15.588Z,2.75
2023-11-26T23:38:44.581Z,2.70
2023-11-26T23:41:12.617Z,2.58
2023-11-26T23:43:41.127Z,2.90
2023-11-26T23:46:08.472Z,3.05
2023-11-26T23:48:35.660Z,2.80
2023-11-26T23:51:03.015Z,2.65
2023-11-26T23:53:30.579Z,3.33
2023-11-26T23:55:57.443Z,3.10
2023-11-26T23:58:24.353Z,3.45
